sensor_id;sensor_type;location;lat;lon;timestamp;pressure;altitude;pressure_sealevel;temperature;humidity
8627;BME280;4351;51.422;6.794;2023-03-15T00:02:23;100979.47;;;4.81;100.00
8627;BME280;4351;51.422;6.794;2023-03-15T00:04:53;100980.78;;;4.68;100.00
8627;BME280;4351;51.422;6.794;2023-03-15T00:07:21;100989.75;;;4.65;100.00
8627;BME280;4351;51.422;6.794;2023-03-15T00:09:51;100990.63;;;4.66;100.00
8627;BME280;4351;51.422;6.794;2023-03-15T00:12:19;100990.97;;;4.55;100.00
8627;BME280;4351;51.422;6.794;2023-03-15T00:14:48;100997.41;;;4.49;100.00
8627;BME280;4351;51.422;6.794;2023-03-15T00:17:16;100993.44;;;4.63;100.00
8627;BME280;4351;51.422;6.794;2023-03-15T00:19:44;100996.88;;;4.66;100.00
8627;BME280;4351;51.422;6.794;2023-03-15T00:22:14;101009.22;;;4.70;100.00
8627;BME280;4351;51.422;6.794;2023-03-15T00:24:42;101025.19;;;4.72;100.00
8627;BME280;4351;51.422;6.794;2023-03-15T00:27:10;101021.88;;;4.64;100.00
8627;BME280;4351;51.422;6.794;2023-03-15T00:29:38;101015.31;;;4.45;100.00
8627;BME280;4351;51.422;6.794;2023-03-15T00:32:07;100992.63;;;4.59;100.00
8627;BME280;4351;51.422;6.794;2023-03-15T00:34:38;100955.06;;;4.35;100.00
8627;BME280;4351;51.422;6.794;2023-03-15T00:37:06;100922.00;;;4.39;100.00
8627;BME280;4351;51.422;6.794;2023-03-15T00:39:36;100875.03;;;4.32;100.00
8627;BME280;4351;51.422;6.794;2023-03-15T00:42:07;100858.13;;;4.02;100.00
8627;BME280;4351;51.422;6.794;2023-03-15T00:44:34;100823.44;;;4.02;100.00
8627;BME280;4351;51.422;6.794;2023-03-15T00:47:02;100808.72;;;3.89;100.00
8627;BME280;4351;51.422;6.794;2023-03-15T00:49:31;100813.34;;;3.84;100.00
8627;BME280;4351;51.422;6.794;2023-03-15T00:52:00;100847.72;;;3.32;100.00
8627;BME280;4351;51.422;6.794;2023-03-15T00:54:28;100846.78;;;3.35;100.00
8627;BME280;4351;51.422;6.794;2023-03-15T00:57:00;100844.13;;;3.33;100.00
8627;BME280;4351;51.422;6.794;2023-03-15T00:59:30;100853.25;;;3.26;100.00
8627;BME280;4351;51.422;6.794;2023-03-15T01:02:00;100836.72;;;3.12;100.00
8627;BME280;4351;51.422;6.794;2023-03-15T01:04:29;100855.84;;;2.96;100.00
8627;BME280;4351;51.422;6.794;2023-03-15T01:06:57;100847.09;;;3.22;100.00
8627;BME280;4351;51.422;6.794;2023-03-15T01:09:25;100854.16;;;3.25;100.00
8627;BME280;4351;51.422;6.794;2023-03-15T01:11:53;100856.88;;;3.24;100.00
8627;BME280;4351;51.422;6.794;2023-03-15T01:14:22;100879.84;;;2.96;100.00
8627;BME280;4351;51.422;6.794;2023-03-15T01:16:51;100885.19;;;2.94;100.00
8627;BME280;4351;51.422;6.794;2023-03-15T01:19:18;100904.13;;;2.83;100.00
8627;BME280;4351;51.422;6.794;2023-03-15T01:21:46;100928.38;;;3.07;100.00
8627;BME280;4351;51.422;6.794;2023-03-15T01:24:16;100942.72;;;3.03;100.00
8627;BME280;4351;51.422;6.794;2023-03-15T01:26:44;100970.47;;;2.96;100.00
8627;BME280;4351;51.422;6.794;2023-03-15T01:29:11;101001.25;;;3.08;100.00
8627;BME280;4351;51.422;6.794;2023-03-15T01:31:41;101026.81;;;3.17;100.00
8627;BME280;4351;51.422;6.794;2023-03-15T01:34:09;101036.13;;;2.98;100.00
8627;BME280;4351;51.422;6.794;2023-03-15T01:36:37;101042.91;;;3.12;100.00
8627;BME280;4351;51.422;6.794;2023-03-15T01:39:05;101052.69;;;3.13;100.00
8627;BME280;4351;51.422;6.794;2023-03-15T01:41:39;101069.84;;;3.01;100.00
8627;BME280;4351;51.422;6.794;2023-03-15T01:44:11;101080.34;;;3.09;100.00
8627;BME280;4351;51.422;6.794;2023-03-15T01:46:42;101095.09;;;3.24;100.00
8627;BME280;4351;51.422;6.794;2023-03-15T01:49:17;101099.16;;;3.01;100.00
8627;BME280;4351;51.422;6.794;2023-03-15T01:51:51;101117.56;;;3.12;100.00
8627;BME280;4351;51.422;6.794;2023-03-15T01:54:25;101129.03;;;3.17;100.00
8627;BME280;4351;51.422;6.794;2023-03-15T01:56:57;101136.81;;;3.25;100.00
8627;BME280;4351;51.422;6.794;2023-03-15T01:59:29;101138.75;;;3.20;100.00
8627;BME280;4351;51.422;6.794;2023-03-15T02:02:00;101156.47;;;3.21;100.00
8627;BME280;4351;51.422;6.794;2023-03-15T02:04:33;101163.72;;;3.16;100.00
8627;BME280;4351;51.422;6.794;2023-03-15T02:07:02;101176.34;;;3.07;100.00
8627;BME280;4351;51.422;6.794;2023-03-15T02:09:36;101194.66;;;3.23;100.00
8627;BME280;4351;51.422;6.794;2023-03-15T02:12:08;101208.13;;;3.17;100.00
8627;BME280;4351;51.422;6.794;2023-03-15T02:14:37;101230.16;;;3.25;100.00
8627;BME280;4351;51.422;6.794;2023-03-15T02:17:09;101238.16;;;3.27;100.00
8627;BME280;4351;51.422;6.794;2023-03-15T02:19:45;101240.69;;;3.31;100.00
8627;BME280;4351;51.422;6.794;2023-03-15T02:22:22;101246.63;;;3.44;100.00
8627;BME280;4351;51.422;6.794;2023-03-15T02:24:57;101248.44;;;3.44;100.00
8627;BME280;4351;51.422;6.794;2023-03-15T02:27:29;101245.31;;;3.64;100.00
8627;BME280;4351;51.422;6.794;2023-03-15T02:30:00;101266.56;;;3.69;100.00
8627;BME280;4351;51.422;6.794;2023-03-15T02:32:29;101261.22;;;3.69;100.00
8627;BME280;4351;51.422;6.794;2023-03-15T02:34:58;101265.97;;;3.94;100.00
8627;BME280;4351;51.422;6.794;2023-03-15T02:37:26;101252.59;;;3.58;100.00
8627;BME280;4351;51.422;6.794;2023-03-15T02:39:53;101242.41;;;3.36;100.00
8627;BME280;4351;51.422;6.794;2023-03-15T02:42:21;101259.25;;;3.38;100.00
8627;BME280;4351;51.422;6.794;2023-03-15T02:44:52;101273.94;;;3.58;100.00
8627;BME280;4351;51.422;6.794;2023-03-15T02:47:24;101284.22;;;3.75;100.00
8627;BME280;4351;51.422;6.794;2023-03-15T02:49:54;101275.13;;;3.84;100.00
8627;BME280;4351;51.422;6.794;2023-03-15T02:52:22;101278.78;;;3.79;100.00
8627;BME280;4351;51.422;6.794;2023-03-15T02:54:50;101266.84;;;3.56;100.00
8627;BME280;4351;51.422;6.794;2023-03-15T02:57:19;101271.63;;;3.40;100.00
8627;BME280;4351;51.422;6.794;2023-03-15T02:59:48;101284.06;;;3.41;100.00
8627;BME280;4351;51.422;6.794;2023-03-15T03:02:21;101297.63;;;3.30;100.00
8627;BME280;4351;51.422;6.794;2023-03-15T03:04:53;101315.38;;;3.74;100.00
8627;BME280;4351;51.422;6.794;2023-03-15T03:07:21;101317.63;;;3.52;100.00
8627;BME280;4351;51.422;6.794;2023-03-15T03:09:55;101320.22;;;3.12;100.00
8627;BME280;4351;51.422;6.794;2023-03-15T03:12:25;101314.66;;;2.77;100.00
8627;BME280;4351;51.422;6.794;2023-03-15T03:14:53;101318.28;;;2.73;100.00
8627;BME280;4351;51.422;6.794;2023-03-15T03:17:24;101322.16;;;2.55;100.00
8627;BME280;4351;51.422;6.794;2023-03-15T03:19:53;101327.41;;;2.59;100.00
8627;BME280;4351;51.422;6.794;2023-03-15T03:22:28;101319.00;;;2.30;100.00
8627;BME280;4351;51.422;6.794;2023-03-15T03:24:56;101331.47;;;2.30;100.00
8627;BME280;4351;51.422;6.794;2023-03-15T03:27:24;101337.78;;;2.23;100.00
8627;BME280;4351;51.422;6.794;2023-03-15T03:29:52;101347.19;;;2.46;100.00
8627;BME280;4351;51.422;6.794;2023-03-15T03:32:20;101351.69;;;2.42;100.00
8627;BME280;4351;51.422;6.794;2023-03-15T03:34:52;101364.97;;;2.44;100.00
8627;BME280;4351;51.422;6.794;2023-03-15T03:37:21;101386.88;;;2.61;100.00
8627;BME280;4351;51.422;6.794;2023-03-15T03:39:55;101388.69;;;2.61;100.00
8627;BME280;4351;51.422;6.794;2023-03-15T03:42:23;101385.22;;;2.56;100.00
8627;BME280;4351;51.422;6.794;2023-03-15T03:44:51;101382.47;;;2.60;100.00
8627;BME280;4351;51.422;6.794;2023-03-15T03:47:21;101390.31;;;2.68;100.00
8627;BME280;4351;51.422;6.794;2023-03-15T03:49:49;101402.72;;;2.71;100.00
8627;BME280;4351;51.422;6.794;2023-03-15T03:52:19;101414.13;;;2.79;100.00
8627;BME280;4351;51.422;6.794;2023-03-15T03:54:49;101410.59;;;2.77;100.00
8627;BME280;4351;51.422;6.794;2023-03-15T03:57:17;101409.81;;;2.72;100.00
8627;BME280;4351;51.422;6.794;2023-03-15T03:59:45;101423.06;;;2.75;100.00
8627;BME280;4351;51.422;6.794;2023-03-15T04:02:13;101417.84;;;2.69;100.00
8627;BME280;4351;51.422;6.794;2023-03-15T04:04:47;101411.72;;;2.65;100.00
8627;BME280;4351;51.422;6.794;2023-03-15T04:07:20;101410.84;;;2.63;100.00
8627;BME280;4351;51.422;6.794;2023-03-15T04:09:49;101409.03;;;2.63;100.00
8627;BME280;4351;51.422;6.794;2023-03-15T04:12:17;101406.97;;;2.81;100.00
8627;BME280;4351;51.422;6.794;2023-03-15T04:14:46;101408.88;;;2.74;100.00
8627;BME280;4351;51.422;6.794;2023-03-15T04:17:16;101406.97;;;2.81;100.00
8627;BME280;4351;51.422;6.794;2023-03-15T04:19:44;101408.53;;;2.95;100.00
8627;BME280;4351;51.422;6.794;2023-03-15T04:22:20;101413.09;;;2.88;100.00
8627;BME280;4351;51.422;6.794;2023-03-15T04:25:18;101405.28;;;2.77;100.00
8627;BME280;4351;51.422;6.794;2023-03-15T04:27:57;101406.31;;;2.70;100.00
8627;BME280;4351;51.422;6.794;2023-03-15T04:30:40;101404.38;;;2.78;100.00
8627;BME280;4351;51.422;6.794;2023-03-15T04:33:32;101403.53;;;2.76;100.00
8627;BME280;4351;51.422;6.794;2023-03-15T04:36:03;101404.09;;;2.95;100.00
8627;BME280;4351;51.422;6.794;2023-03-15T04:38:55;101400.72;;;2.84;100.00
8627;BME280;4351;51.422;6.794;2023-03-15T04:41:50;101380.50;;;2.70;100.00
8627;BME280;4351;51.422;6.794;2023-03-15T04:44:39;101375.19;;;2.72;100.00
8627;BME280;4351;51.422;6.794;2023-03-15T04:47:27;101361.75;;;2.76;100.00
8627;BME280;4351;51.422;6.794;2023-03-15T04:50:23;101366.22;;;2.76;100.00
8627;BME280;4351;51.422;6.794;2023-03-15T04:53:06;101356.22;;;2.87;100.00
8627;BME280;4351;51.422;6.794;2023-03-15T04:56:10;101334.25;;;2.76;100.00
8627;BME280;4351;51.422;6.794;2023-03-15T04:59:17;101336.44;;;3.01;100.00
8627;BME280;4351;51.422;6.794;2023-03-15T05:02:09;101326.03;;;2.87;100.00
8627;BME280;4351;51.422;6.794;2023-03-15T05:04:58;101326.78;;;2.95;100.00
8627;BME280;4351;51.422;6.794;2023-03-15T05:07:45;101335.88;;;2.85;100.00
8627;BME280;4351;51.422;6.794;2023-03-15T05:10:46;101331.38;;;2.85;100.00
8627;BME280;4351;51.422;6.794;2023-03-15T05:13:24;101334.91;;;2.87;100.00
8627;BME280;4351;51.422;6.794;2023-03-15T05:16:18;101332.31;;;2.84;100.00
8627;BME280;4351;51.422;6.794;2023-03-15T05:18:59;101337.34;;;3.00;100.00
8627;BME280;4351;51.422;6.794;2023-03-15T05:22:06;101338.34;;;2.94;100.00
8627;BME280;4351;51.422;6.794;2023-03-15T05:24:52;101333.72;;;3.04;100.00
8627;BME280;4351;51.422;6.794;2023-03-15T05:27:39;101320.38;;;3.04;100.00
8627;BME280;4351;51.422;6.794;2023-03-15T05:30:24;101322.97;;;3.09;100.00
8627;BME280;4351;51.422;6.794;2023-03-15T05:33:16;101320.44;;;3.03;100.00
8627;BME280;4351;51.422;6.794;2023-03-15T05:35:52;101325.75;;;3.01;100.00
8627;BME280;4351;51.422;6.794;2023-03-15T05:38:36;101325.03;;;2.93;100.00
8627;BME280;4351;51.422;6.794;2023-03-15T05:41:33;101324.63;;;3.15;100.00
8627;BME280;4351;51.422;6.794;2023-03-15T05:44:17;101331.66;;;3.19;100.00
8627;BME280;4351;51.422;6.794;2023-03-15T05:47:09;101334.69;;;3.00;100.00
8627;BME280;4351;51.422;6.794;2023-03-15T05:49:48;101322.75;;;3.20;100.00
8627;BME280;4351;51.422;6.794;2023-03-15T05:52:39;101322.16;;;3.04;100.00
8627;BME280;4351;51.422;6.794;2023-03-15T05:55:13;101326.47;;;3.11;100.00
8627;BME280;4351;51.422;6.794;2023-03-15T05:58:01;101330.72;;;3.21;100.00
8627;BME280;4351;51.422;6.794;2023-03-15T06:00:51;101329.78;;;3.24;100.00
8627;BME280;4351;51.422;6.794;2023-03-15T06:03:38;101314.94;;;3.10;100.00
8627;BME280;4351;51.422;6.794;2023-03-15T06:06:14;101319.88;;;3.29;100.00
8627;BME280;4351;51.422;6.794;2023-03-15T06:08:46;101325.22;;;3.29;100.00
8627;BME280;4351;51.422;6.794;2023-03-15T06:11:13;101321.06;;;3.16;100.00
8627;BME280;4351;51.422;6.794;2023-03-15T06:13:41;101324.44;;;3.24;100.00
8627;BME280;4351;51.422;6.794;2023-03-15T06:16:17;101316.97;;;3.42;100.00
8627;BME280;4351;51.422;6.794;2023-03-15T06:18:49;101321.91;;;3.16;100.00
8627;BME280;4351;51.422;6.794;2023-03-15T06:21:20;101312.88;;;3.24;100.00
8627;BME280;4351;51.422;6.794;2023-03-15T06:23:48;101327.84;;;3.74;100.00
8627;BME280;4351;51.422;6.794;2023-03-15T06:26:18;101310.53;;;3.52;100.00
8627;BME280;4351;51.422;6.794;2023-03-15T06:28:50;101297.84;;;3.62;100.00
8627;BME280;4351;51.422;6.794;2023-03-15T06:31:18;101298.31;;;3.40;100.00
8627;BME280;4351;51.422;6.794;2023-03-15T06:33:53;101300.22;;;3.33;100.00
8627;BME280;4351;51.422;6.794;2023-03-15T06:36:20;101317.78;;;3.45;100.00
8627;BME280;4351;51.422;6.794;2023-03-15T06:38:50;101319.53;;;3.47;100.00
8627;BME280;4351;51.422;6.794;2023-03-15T06:41:20;101327.81;;;3.32;100.00
8627;BME280;4351;51.422;6.794;2023-03-15T06:43:53;101329.25;;;3.49;100.00
8627;BME280;4351;51.422;6.794;2023-03-15T06:46:21;101340.56;;;3.61;100.00
8627;BME280;4351;51.422;6.794;2023-03-15T06:48:49;101341.69;;;3.50;100.00
8627;BME280;4351;51.422;6.794;2023-03-15T06:51:21;101334.81;;;3.40;100.00
8627;BME280;4351;51.422;6.794;2023-03-15T06:53:49;101334.91;;;3.33;100.00
8627;BME280;4351;51.422;6.794;2023-03-15T06:56:17;101346.09;;;3.53;100.00
8627;BME280;4351;51.422;6.794;2023-03-15T06:58:45;101350.63;;;3.48;100.00
8627;BME280;4351;51.422;6.794;2023-03-15T07:01:13;101367.53;;;3.48;100.00
8627;BME280;4351;51.422;6.794;2023-03-15T07:03:41;101378.50;;;3.75;100.00
8627;BME280;4351;51.422;6.794;2023-03-15T07:06:09;101373.25;;;3.72;100.00
8627;BME280;4351;51.422;6.794;2023-03-15T07:08:38;101372.22;;;3.79;100.00
8627;BME280;4351;51.422;6.794;2023-03-15T07:11:06;101367.13;;;3.67;100.00
8627;BME280;4351;51.422;6.794;2023-03-15T07:13:34;101370.72;;;3.64;100.00
8627;BME280;4351;51.422;6.794;2023-03-15T07:16:03;101372.56;;;3.64;100.00
8627;BME280;4351;51.422;6.794;2023-03-15T07:18:31;101375.88;;;3.74;100.00
8627;BME280;4351;51.422;6.794;2023-03-15T07:21:01;101391.84;;;3.75;100.00
8627;BME280;4351;51.422;6.794;2023-03-15T07:23:30;101390.03;;;3.79;100.00
8627;BME280;4351;51.422;6.794;2023-03-15T07:25:59;101403.19;;;3.87;100.00
8627;BME280;4351;51.422;6.794;2023-03-15T07:28:27;101395.50;;;3.71;100.00
8627;BME280;4351;51.422;6.794;2023-03-15T07:30:56;101401.22;;;3.97;100.00
8627;BME280;4351;51.422;6.794;2023-03-15T07:33:26;101407.16;;;4.08;100.00
8627;BME280;4351;51.422;6.794;2023-03-15T07:35:54;101407.22;;;4.07;100.00
8627;BME280;4351;51.422;6.794;2023-03-15T07:38:24;101404.72;;;3.99;100.00
8627;BME280;4351;51.422;6.794;2023-03-15T07:40:54;101402.66;;;4.12;100.00
8627;BME280;4351;51.422;6.794;2023-03-15T07:43:24;101413.44;;;4.07;100.00
8627;BME280;4351;51.422;6.794;2023-03-15T07:46:04;101422.25;;;4.11;100.00
8627;BME280;4351;51.422;6.794;2023-03-15T07:48:33;101431.09;;;4.13;100.00
8627;BME280;4351;51.422;6.794;2023-03-15T07:51:01;101448.66;;;4.25;100.00
8627;BME280;4351;51.422;6.794;2023-03-15T07:53:29;101459.63;;;4.11;100.00
8627;BME280;4351;51.422;6.794;2023-03-15T07:55:56;101462.78;;;4.30;100.00
8627;BME280;4351;51.422;6.794;2023-03-15T07:58:26;101496.41;;;4.41;100.00
8627;BME280;4351;51.422;6.794;2023-03-15T08:00:54;101504.34;;;4.44;100.00
8627;BME280;4351;51.422;6.794;2023-03-15T08:03:23;101507.34;;;4.69;100.00
8627;BME280;4351;51.422;6.794;2023-03-15T08:05:52;101494.63;;;4.79;100.00
8627;BME280;4351;51.422;6.794;2023-03-15T08:08:23;101502.59;;;4.81;100.00
8627;BME280;4351;51.422;6.794;2023-03-15T08:10:51;101494.09;;;4.65;100.00
8627;BME280;4351;51.422;6.794;2023-03-15T08:13:21;101486.31;;;4.54;100.00
8627;BME280;4351;51.422;6.794;2023-03-15T08:15:51;101486.91;;;4.65;100.00
8627;BME280;4351;51.422;6.794;2023-03-15T08:18:19;101493.31;;;4.59;100.00
8627;BME280;4351;51.422;6.794;2023-03-15T08:20:46;101509.38;;;4.58;100.00
8627;BME280;4351;51.422;6.794;2023-03-15T08:23:14;101515.13;;;4.80;100.00
8627;BME280;4351;51.422;6.794;2023-03-15T08:25:43;101516.22;;;5.08;100.00
8627;BME280;4351;51.422;6.794;2023-03-15T08:28:11;101524.69;;;5.26;100.00
8627;BME280;4351;51.422;6.794;2023-03-15T08:30:39;101514.16;;;5.20;100.00
8627;BME280;4351;51.422;6.794;2023-03-15T08:33:09;101521.25;;;5.21;100.00
8627;BME280;4351;51.422;6.794;2023-03-15T08:35:38;101530.50;;;5.44;100.00
8627;BME280;4351;51.422;6.794;2023-03-15T08:38:07;101519.25;;;5.29;100.00
8627;BME280;4351;51.422;6.794;2023-03-15T08:40:35;101531.00;;;5.58;100.00
8627;BME280;4351;51.422;6.794;2023-03-15T08:43:05;101529.88;;;5.32;100.00
8627;BME280;4351;51.422;6.794;2023-03-15T08:45:33;101546.41;;;5.83;100.00
8627;BME280;4351;51.422;6.794;2023-03-15T08:48:22;101550.34;;;6.02;100.00
8627;BME280;4351;51.422;6.794;2023-03-15T08:50:50;101536.84;;;6.06;100.00
8627;BME280;4351;51.422;6.794;2023-03-15T08:53:18;101547.50;;;6.09;100.00
8627;BME280;4351;51.422;6.794;2023-03-15T08:55:50;101555.34;;;5.82;100.00
8627;BME280;4351;51.422;6.794;2023-03-15T08:58:18;101561.53;;;5.84;100.00
8627;BME280;4351;51.422;6.794;2023-03-15T09:00:47;101568.88;;;5.43;100.00
8627;BME280;4351;51.422;6.794;2023-03-15T09:03:17;101572.00;;;5.60;100.00
8627;BME280;4351;51.422;6.794;2023-03-15T09:05:46;101581.72;;;5.28;100.00
8627;BME280;4351;51.422;6.794;2023-03-15T09:08:16;101585.69;;;5.48;100.00
8627;BME280;4351;51.422;6.794;2023-03-15T09:10:46;101591.94;;;5.82;100.00
8627;BME280;4351;51.422;6.794;2023-03-15T09:13:15;101608.97;;;6.46;100.00
8627;BME280;4351;51.422;6.794;2023-03-15T09:15:43;101602.66;;;6.17;100.00
8627;BME280;4351;51.422;6.794;2023-03-15T09:18:11;101604.16;;;6.27;100.00
8627;BME280;4351;51.422;6.794;2023-03-15T09:20:39;101604.91;;;6.63;100.00
8627;BME280;4351;51.422;6.794;2023-03-15T09:23:08;101619.31;;;6.60;100.00
8627;BME280;4351;51.422;6.794;2023-03-15T09:25:36;101624.63;;;6.62;100.00
8627;BME280;4351;51.422;6.794;2023-03-15T09:28:04;101614.25;;;6.49;100.00
8627;BME280;4351;51.422;6.794;2023-03-15T09:30:33;101618.81;;;6.46;100.00
8627;BME280;4351;51.422;6.794;2023-03-15T09:33:02;101631.28;;;6.15;100.00
8627;BME280;4351;51.422;6.794;2023-03-15T09:35:30;101628.19;;;5.95;100.00
8627;BME280;4351;51.422;6.794;2023-03-15T09:37:59;101628.16;;;5.97;100.00
8627;BME280;4351;51.422;6.794;2023-03-15T09:40:31;101638.13;;;5.92;100.00
8627;BME280;4351;51.422;6.794;2023-03-15T09:43:03;101650.69;;;6.25;100.00
8627;BME280;4351;51.422;6.794;2023-03-15T09:45:42;101657.63;;;6.64;100.00
8627;BME280;4351;51.422;6.794;2023-03-15T09:48:18;101663.06;;;6.91;100.00
8627;BME280;4351;51.422;6.794;2023-03-15T09:50:51;101664.13;;;7.16;100.00
8627;BME280;4351;51.422;6.794;2023-03-15T09:53:23;101655.84;;;7.23;100.00
8627;BME280;4351;51.422;6.794;2023-03-15T09:55:57;101654.13;;;7.21;100.00
8627;BME280;4351;51.422;6.794;2023-03-15T09:58:27;101658.13;;;7.07;100.00
8627;BME280;4351;51.422;6.794;2023-03-15T10:01:00;101656.34;;;6.77;100.00
8627;BME280;4351;51.422;6.794;2023-03-15T10:03:33;101657.38;;;6.72;100.00
8627;BME280;4351;51.422;6.794;2023-03-15T10:06:07;101662.34;;;6.55;100.00
8627;BME280;4351;51.422;6.794;2023-03-15T10:08:39;101659.91;;;6.46;100.00
8627;BME280;4351;51.422;6.794;2023-03-15T10:11:13;101667.53;;;6.92;100.00
8627;BME280;4351;51.422;6.794;2023-03-15T10:13:57;101665.09;;;6.84;100.00
8627;BME280;4351;51.422;6.794;2023-03-15T10:16:38;101675.16;;;7.35;100.00
8627;BME280;4351;51.422;6.794;2023-03-15T10:19:17;101662.72;;;7.59;100.00
8627;BME280;4351;51.422;6.794;2023-03-15T10:21:53;101663.84;;;7.81;100.00
8627;BME280;4351;51.422;6.794;2023-03-15T10:24:27;101672.38;;;7.92;100.00
8627;BME280;4351;51.422;6.794;2023-03-15T10:27:09;101674.66;;;8.05;100.00
8627;BME280;4351;51.422;6.794;2023-03-15T10:29:41;101679.75;;;8.38;100.00
8627;BME280;4351;51.422;6.794;2023-03-15T10:32:14;101683.78;;;7.74;100.00
8627;BME280;4351;51.422;6.794;2023-03-15T10:34:47;101678.28;;;7.50;100.00
8627;BME280;4351;51.422;6.794;2023-03-15T10:37:18;101685.06;;;7.89;100.00
8627;BME280;4351;51.422;6.794;2023-03-15T10:39:47;101683.38;;;8.12;100.00
8627;BME280;4351;51.422;6.794;2023-03-15T10:42:26;101680.81;;;8.60;100.00
8627;BME280;4351;51.422;6.794;2023-03-15T10:44:54;101676.41;;;8.06;100.00
8627;BME280;4351;51.422;6.794;2023-03-15T10:47:24;101687.88;;;8.62;100.00
8627;BME280;4351;51.422;6.794;2023-03-15T10:49:55;101680.63;;;8.89;100.00
8627;BME280;4351;51.422;6.794;2023-03-15T10:52:31;101679.00;;;8.84;100.00
8627;BME280;4351;51.422;6.794;2023-03-15T10:55:04;101674.91;;;8.74;100.00
8627;BME280;4351;51.422;6.794;2023-03-15T10:57:37;101675.50;;;8.82;100.00
8627;BME280;4351;51.422;6.794;2023-03-15T11:00:20;101685.19;;;8.87;100.00
8627;BME280;4351;51.422;6.794;2023-03-15T11:02:51;101686.38;;;8.79;100.00
8627;BME280;4351;51.422;6.794;2023-03-15T11:05:29;101680.06;;;8.80;100.00
8627;BME280;4351;51.422;6.794;2023-03-15T11:07:59;101676.59;;;9.01;100.00
8627;BME280;4351;51.422;6.794;2023-03-15T11:10:32;101686.97;;;8.88;100.00
8627;BME280;4351;51.422;6.794;2023-03-15T11:13:13;101682.25;;;8.69;100.00
8627;BME280;4351;51.422;6.794;2023-03-15T11:16:04;101693.91;;;8.44;100.00
8627;BME280;4351;51.422;6.794;2023-03-15T11:18:35;101696.91;;;8.85;100.00
8627;BME280;4351;51.422;6.794;2023-03-15T11:21:06;101701.66;;;8.53;100.00
8627;BME280;4351;51.422;6.794;2023-03-15T11:23:37;101712.78;;;8.16;100.00
8627;BME280;4351;51.422;6.794;2023-03-15T11:26:08;101711.72;;;8.21;100.00
8627;BME280;4351;51.422;6.794;2023-03-15T11:28:59;101715.66;;;8.63;100.00
8627;BME280;4351;51.422;6.794;2023-03-15T11:31:29;101716.78;;;9.29;100.00
8627;BME280;4351;51.422;6.794;2023-03-15T11:33:59;101727.34;;;9.57;100.00
8627;BME280;4351;51.422;6.794;2023-03-15T11:36:32;101726.88;;;9.47;100.00
8627;BME280;4351;51.422;6.794;2023-03-15T11:39:02;101730.50;;;9.68;100.00
8627;BME280;4351;51.422;6.794;2023-03-15T11:41:34;101731.13;;;8.82;100.00
8627;BME280;4351;51.422;6.794;2023-03-15T11:44:11;101741.75;;;9.33;100.00
8627;BME280;4351;51.422;6.794;2023-03-15T11:46:42;101737.16;;;9.37;100.00
8627;BME280;4351;51.422;6.794;2023-03-15T11:49:15;101738.56;;;9.23;100.00
8627;BME280;4351;51.422;6.794;2023-03-15T11:51:44;101738.09;;;9.12;100.00
8627;BME280;4351;51.422;6.794;2023-03-15T11:54:14;101745.03;;;9.17;100.00
8627;BME280;4351;51.422;6.794;2023-03-15T11:56:53;101755.22;;;9.33;100.00
8627;BME280;4351;51.422;6.794;2023-03-15T11:59:27;101753.06;;;9.65;100.00
8627;BME280;4351;51.422;6.794;2023-03-15T12:02:00;101753.69;;;9.50;100.00
8627;BME280;4351;51.422;6.794;2023-03-15T12:04:43;101752.03;;;9.46;100.00
8627;BME280;4351;51.422;6.794;2023-03-15T12:07:35;101753.91;;;9.21;100.00
8627;BME280;4351;51.422;6.794;2023-03-15T12:10:31;101755.13;;;9.36;100.00
8627;BME280;4351;51.422;6.794;2023-03-15T12:13:06;101744.91;;;9.45;100.00
8627;BME280;4351;51.422;6.794;2023-03-15T12:15:44;101754.09;;;9.63;100.00
8627;BME280;4351;51.422;6.794;2023-03-15T12:18:27;101751.19;;;9.45;100.00
8627;BME280;4351;51.422;6.794;2023-03-15T12:21:10;101753.56;;;9.75;100.00
8627;BME280;4351;51.422;6.794;2023-03-15T12:23:45;101748.03;;;9.78;100.00
8627;BME280;4351;51.422;6.794;2023-03-15T12:26:30;101742.94;;;10.16;100.00
8627;BME280;4351;51.422;6.794;2023-03-15T12:29:06;101732.81;;;10.21;100.00
8627;BME280;4351;51.422;6.794;2023-03-15T12:31:54;101740.03;;;10.41;100.00
8627;BME280;4351;51.422;6.794;2023-03-15T12:34:26;101726.75;;;10.57;100.00
8627;BME280;4351;51.422;6.794;2023-03-15T12:36:58;101726.16;;;10.30;100.00
8627;BME280;4351;51.422;6.794;2023-03-15T12:39:40;101720.19;;;10.00;100.00
8627;BME280;4351;51.422;6.794;2023-03-15T12:42:13;101726.50;;;10.22;100.00
8627;BME280;4351;51.422;6.794;2023-03-15T12:51:09;101703.63;;;10.10;100.00
8627;BME280;4351;51.422;6.794;2023-03-15T12:53:48;101697.56;;;10.26;100.00
8627;BME280;4351;51.422;6.794;2023-03-15T12:56:31;101711.06;;;9.82;100.00
8627;BME280;4351;51.422;6.794;2023-03-15T12:59:04;101704.41;;;9.91;100.00
8627;BME280;4351;51.422;6.794;2023-03-15T13:01:36;101694.72;;;9.87;100.00
8627;BME280;4351;51.422;6.794;2023-03-15T13:04:04;101688.38;;;9.88;100.00
8627;BME280;4351;51.422;6.794;2023-03-15T13:06:48;101696.94;;;10.19;100.00
8627;BME280;4351;51.422;6.794;2023-03-15T13:09:30;101685.44;;;10.15;100.00
8627;BME280;4351;51.422;6.794;2023-03-15T13:12:08;101680.38;;;9.64;100.00
8627;BME280;4351;51.422;6.794;2023-03-15T13:14:43;101678.75;;;9.82;100.00
8627;BME280;4351;51.422;6.794;2023-03-15T13:17:24;101673.03;;;9.68;100.00
8627;BME280;4351;51.422;6.794;2023-03-15T13:20:11;101663.19;;;9.89;100.00
8627;BME280;4351;51.422;6.794;2023-03-15T13:22:47;101675.06;;;9.62;100.00
8627;BME280;4351;51.422;6.794;2023-03-15T13:25:25;101686.28;;;9.29;100.00
8627;BME280;4351;51.422;6.794;2023-03-15T13:27:58;101705.41;;;9.45;100.00
8627;BME280;4351;51.422;6.794;2023-03-15T13:30:32;101710.53;;;9.05;100.00
8627;BME280;4351;51.422;6.794;2023-03-15T13:33:03;101703.19;;;9.08;100.00
8627;BME280;4351;51.422;6.794;2023-03-15T13:35:32;101726.97;;;9.21;100.00
8627;BME280;4351;51.422;6.794;2023-03-15T13:38:08;101705.53;;;9.18;100.00
8627;BME280;4351;51.422;6.794;2023-03-15T13:40:45;101708.78;;;9.28;100.00
8627;BME280;4351;51.422;6.794;2023-03-15T13:43:13;101693.22;;;9.12;100.00
8627;BME280;4351;51.422;6.794;2023-03-15T13:45:41;101694.53;;;9.24;100.00
8627;BME280;4351;51.422;6.794;2023-03-15T13:48:10;101697.91;;;9.74;100.00
8627;BME280;4351;51.422;6.794;2023-03-15T13:50:39;101687.28;;;9.71;100.00